TimeEST,TemperatureF,Dew PointF,Humidity,Sea Level PressureIn,VisibilityMPH,Wind Direction,Wind SpeedMPH,Gust SpeedMPH,PrecipitationIn,Events,Conditions,WindDirDegrees,DateUTC
12:51 AM,50.0,43.0,77,30.26,10.0,South,4.6,-,N/A,,Clear,190,2011-11-08 05:51:00
1:51 AM,50.0,43.0,77,30.25,10.0,SW,4.6,-,N/A,,Clear,220,2011-11-08 06:51:00
2:51 AM,48.9,42.1,77,30.24,10.0,Calm,Calm,-,N/A,,Clear,0,2011-11-08 07:51:00
3:51 AM,48.9,42.1,77,30.24,10.0,South,3.5,-,N/A,,Clear,190,2011-11-08 08:51:00
4:51 AM,48.0,42.1,80,30.25,10.0,SSW,3.5,-,N/A,,Clear,210,2011-11-08 09:51:00
5:51 AM,50.0,42.1,74,30.26,10.0,Calm,Calm,-,N/A,,Clear,0,2011-11-08 10:51:00
6:51 AM,50.0,42.1,74,30.26,7.0,Calm,Calm,-,N/A,,Partly Cloudy,0,2011-11-08 11:51:00
7:51 AM,52.0,45.0,77,30.28,7.0,SSW,3.5,-,N/A,,Partly Cloudy,210,2011-11-08 12:51:00
8:51 AM,61.0,45.0,56,30.27,7.0,Calm,Calm,-,N/A,,Clear,0,2011-11-08 13:51:00
9:51 AM,61.0,45.0,56,30.27,6.0,Calm,Calm,-,N/A,,Haze,0,2011-11-08 14:51:00
10:51 AM,66.9,46.0,47,30.27,8.0,NE,4.6,-,N/A,,Clear,50,2011-11-08 15:51:00
11:51 AM,68.0,46.0,45,30.25,10.0,NE,6.9,-,N/A,,Clear,50,2011-11-08 16:51:00
12:51 PM,69.1,46.0,44,30.22,10.0,East,4.6,-,N/A,,Clear,100,2011-11-08 17:51:00
1:51 PM,70.0,46.9,44,30.21,10.0,Calm,Calm,-,N/A,,Clear,0,2011-11-08 18:51:00
2:51 PM,68.0,46.9,47,30.21,10.0,South,5.8,-,N/A,,Clear,170,2011-11-08 19:51:00
3:51 PM,66.0,46.9,50,30.21,10.0,SSE,5.8,-,N/A,,Clear,150,2011-11-08 20:51:00
4:51 PM,64.0,46.9,54,30.21,10.0,SSE,3.5,-,N/A,,Clear,150,2011-11-08 21:51:00
5:51 PM,61.0,46.0,58,30.22,10.0,SSE,3.5,-,N/A,,Clear,160,2011-11-08 22:51:00
6:51 PM,60.1,46.0,60,30.23,10.0,Calm,Calm,-,N/A,,Clear,0,2011-11-08 23:51:00
7:51 PM,59.0,45.0,60,30.23,10.0,Calm,Calm,-,N/A,,Clear,0,2011-11-09 00:51:00
8:51 PM,57.0,45.0,64,30.24,10.0,Calm,Calm,-,N/A,,Clear,0,2011-11-09 01:51:00
9:51 PM,55.9,46.0,69,30.24,10.0,Calm,Calm,-,N/A,,Clear,0,2011-11-09 02:51:00
10:51 PM,55.9,46.0,69,30.23,10.0,Calm,Calm,-,N/A,,Clear,0,2011-11-09 03:51:00
11:51 PM,54.0,46.0,75,30.22,10.0,Calm,Calm,-,N/A,,Clear,0,2011-11-09 04:51:00